Time;durP1;ratioP1;P1;durP2;ratioP2;P2;SDS_P1;SDS_P2;PMS_P1;PMS_P2;Temp;Humidity;BMP_temperature;BMP_pressure;BME280_temperature;BME280_humidity;BME280_pressure;Samples;Min_cycle;Max_cycle;Signal;HPM_P1;HPM_P2
2022/03/11 00:00:26;;;;;;;21.05;9.25;;;;;;;-10.75;100.00;91324.13;4991524;28;20038;-69
2022/03/11 00:02:52;;;;;;;20.38;8.93;;;;;;;-10.78;100.00;91320.13;4991443;28;20038;-69
2022/03/11 00:05:17;;;;;;;16.92;8.60;;;;;;;-10.75;100.00;91319.78;4991512;28;20041;-69
2022/03/11 00:07:43;;;;;;;19.15;8.27;;;;;;;-10.84;100.00;91325.97;4991185;28;20098;-69
2022/03/11 00:10:09;;;;;;;15.20;7.28;;;;;;;-10.84;100.00;91317.47;4991027;28;20325;-71
2022/03/11 00:12:37;;;;;;;12.52;6.93;;;;;;;-10.84;100.00;91320.84;4991193;28;20055;-71
2022/03/11 00:15:06;;;;;;;37.10;14.25;;;;;;;-10.84;100.00;91313.13;4991194;28;20066;-69
2022/03/11 00:17:33;;;;;;;60.42;17.80;;;;;;;-10.80;100.00;91313.56;4973677;28;20113;-69
2022/03/11 00:19:58;;;;;;;67.18;20.75;;;;;;;-10.78;100.00;91312.44;4993195;28;20026;-69
2022/03/11 00:22:24;;;;;;;43.92;12.57;;;;;;;-10.67;100.00;91317.16;4994665;28;20081;-69
2022/03/11 00:24:49;;;;;;;26.33;9.18;;;;;;;-10.64;100.00;91323.72;4994845;28;20042;-70
2022/03/11 00:27:15;;;;;;;23.20;9.18;;;;;;;-10.62;100.00;91320.00;4994750;28;20109;-69
2022/03/11 00:29:41;;;;;;;39.10;13.48;;;;;;;-10.63;100.00;91322.75;4994760;28;20037;-71
2022/03/11 00:32:07;;;;;;;24.88;9.65;;;;;;;-10.62;100.00;91319.19;4994673;28;20028;-69
2022/03/11 00:34:32;;;;;;;16.58;7.45;;;;;;;-10.65;100.00;91314.41;4994561;28;20037;-69
2022/03/11 00:36:58;;;;;;;10.95;5.40;;;;;;;-10.73;100.00;91306.75;4977017;28;20569;-69
2022/03/11 00:39:24;;;;;;;16.52;5.70;;;;;;;-10.87;100.00;91308.34;4977080;28;20030;-69
2022/03/11 00:41:50;;;;;;;20.95;10.35;;;;;;;-10.89;100.00;91305.13;4994521;28;20035;-70
2022/03/11 00:44:16;;;;;;;13.95;6.15;;;;;;;-10.93;100.00;91303.88;4976909;28;20460;-69
2022/03/11 00:46:41;;;;;;;11.05;6.43;;;;;;;-10.99;100.00;91300.22;4994411;28;20057;-69
2022/03/11 00:49:06;;;;;;;9.50;5.18;;;;;;;-10.95;100.00;91305.81;4994169;28;20109;-69
2022/03/11 00:51:33;;;;;;;13.52;6.65;;;;;;;-10.98;100.00;91311.31;4994191;28;20085;-69
2022/03/11 00:53:58;;;;;;;20.05;6.25;;;;;;;-10.99;100.00;91312.28;4976096;28;20049;-69
2022/03/11 00:56:25;;;;;;;43.03;14.38;;;;;;;-11.01;100.00;91314.22;4993967;28;20023;-69
2022/03/11 00:58:50;;;;;;;25.50;10.40;;;;;;;-11.29;100.00;91301.09;4994041;28;20064;-69
2022/03/11 01:01:15;;;;;;;17.58;7.50;;;;;;;-11.33;100.00;91318.59;4976507;28;20026;-69
2022/03/11 01:03:41;;;;;;;20.55;9.38;;;;;;;-11.37;100.00;91312.19;4993779;28;20436;-69
2022/03/11 01:06:07;;;;;;;14.35;6.45;;;;;;;-11.51;100.00;91311.19;4993913;28;20029;-69
2022/03/11 01:08:32;;;;;;;14.00;5.65;;;;;;;-11.60;100.00;91308.81;4993686;28;20027;-69
2022/03/11 01:10:58;;;;;;;23.67;9.25;;;;;;;-11.56;100.00;91313.44;4993575;28;20042;-69
2022/03/11 01:13:23;;;;;;;23.55;10.02;;;;;;;-11.63;100.00;91306.59;4993750;28;20040;-69
2022/03/11 01:15:49;;;;;;;14.45;7.75;;;;;;;-11.62;100.00;91303.03;4976447;28;20038;-69
2022/03/11 01:18:14;;;;;;;11.63;5.50;;;;;;;-11.51;100.00;91308.59;4993848;28;20037;-69
2022/03/11 01:20:39;;;;;;;9.77;5.75;;;;;;;-11.40;100.00;91315.09;4993816;28;20037;-69
2022/03/11 01:23:05;;;;;;;9.90;4.15;;;;;;;-11.41;100.00;91315.28;4993685;28;20472;-69
2022/03/11 01:25:30;;;;;;;6.57;4.18;;;;;;;-11.46;100.00;91313.22;4993725;28;20022;-69
2022/03/11 01:27:57;;;;;;;10.05;3.67;;;;;;;-11.45;100.00;91309.69;4993667;28;20580;-70
2022/03/11 01:30:22;;;;;;;7.47;3.85;;;;;;;-11.51;100.00;91306.03;4993510;28;20397;-69
2022/03/11 01:32:48;;;;;;;5.55;2.97;;;;;;;-11.56;100.00;91313.44;4993083;28;20038;-69
2022/03/11 01:35:13;;;;;;;5.45;3.38;;;;;;;-11.60;100.00;91295.97;4993474;28;20037;-70
2022/03/11 01:37:39;;;;;;;11.68;3.72;;;;;;;-11.58;100.00;91299.16;4993364;28;20428;-69
2022/03/11 01:40:05;;;;;;;8.63;4.18;;;;;;;-11.67;100.00;91302.75;4993514;28;20146;-70
2022/03/11 01:42:34;;;;;;;11.63;4.43;;;;;;;-11.75;100.00;91295.88;4993228;28;20030;-69
2022/03/11 01:45:00;;;;;;;9.13;3.97;;;;;;;-11.74;100.00;91296.69;4993375;28;20117;-69
2022/03/11 01:47:25;;;;;;;5.97;3.70;;;;;;;-11.75;100.00;91289.97;4993270;28;20547;-70
2022/03/11 01:49:51;;;;;;;8.10;3.92;;;;;;;-11.71;100.00;91299.72;4975718;28;20038;-69
2022/03/11 01:52:17;;;;;;;8.57;3.78;;;;;;;-11.61;100.00;91308.00;4999995;28;20053;-71
2022/03/11 01:54:43;;;;;;;9.65;4.85;;;;;;;-11.53;100.00;91302.03;5012144;28;20092;-70
2022/03/11 01:57:09;;;;;;;6.18;3.55;;;;;;;-11.56;100.00;91294.66;5011903;28;20041;-69
2022/03/11 01:59:35;;;;;;;7.35;4.03;;;;;;;-11.45;100.00;91283.22;5012645;28;20045;-69
2022/03/11 02:02:00;;;;;;;8.38;4.32;;;;;;;-11.44;100.00;91290.75;5012468;28;20037;-71
2022/03/11 02:04:25;;;;;;;4.32;2.50;;;;;;;-11.65;100.00;91291.34;5012527;28;20049;-69
2022/03/11 02:06:52;;;;;;;3.85;2.63;;;;;;;-11.67;100.00;91295.06;5012328;28;20030;-69
2022/03/11 02:09:17;;;;;;;3.45;1.98;;;;;;;-11.68;100.00;91293.44;5012156;28;20050;-70
2022/03/11 02:11:45;;;;;;;3.00;2.20;;;;;;;-11.80;100.00;91291.31;4994832;28;20380;-69
2022/03/11 02:14:11;;;;;;;5.05;2.63;;;;;;;-11.83;100.00;91285.72;4994636;28;20527;-69
2022/03/11 02:16:37;;;;;;;3.92;3.00;;;;;;;-11.80;100.00;91287.94;5012316;28;20093;-69
2022/03/11 02:19:03;;;;;;;4.75;2.65;;;;;;;-11.81;100.00;91279.44;5012227;28;20033;-69
2022/03/11 02:21:28;;;;;;;7.63;3.22;;;;;;;-11.76;100.00;91285.81;5012284;28;20075;-69
2022/03/11 02:24:00;;;;;;;6.05;3.13;;;;;;;-11.65;100.00;91288.00;5012152;28;20420;-69
2022/03/11 02:26:28;;;;;;;2.75;1.98;;;;;;;-11.55;100.00;91298.81;5012173;28;20056;-69
2022/03/11 02:28:56;;;;;;;4.28;2.92;;;;;;;-11.52;100.00;91298.47;5012042;28;20041;-69
2022/03/11 02:31:24;;;;;;;7.35;3.63;;;;;;;-11.70;100.00;91295.38;4994420;28;20030;-69
2022/03/11 02:33:49;;;;;;;7.53;3.88;;;;;;;-11.71;100.00;91293.78;5011929;28;20496;-69
2022/03/11 02:36:15;;;;;;;3.92;2.38;;;;;;;-11.64;100.00;91295.53;5011970;28;20030;-69
2022/03/11 02:38:41;;;;;;;2.83;2.25;;;;;;;-11.60;100.00;91295.97;5011980;28;20059;-69
2022/03/11 02:41:07;;;;;;;6.18;3.42;;;;;;;-11.64;100.00;91302.41;5011850;28;20056;-69
2022/03/11 02:43:33;;;;;;;6.53;3.97;;;;;;;-11.66;100.00;91309.50;5010882;28;20041;-69
2022/03/11 02:45:59;;;;;;;3.95;3.08;;;;;;;-11.78;100.00;91305.72;5011881;28;20026;-70
2022/03/11 02:48:24;;;;;;;7.78;4.30;;;;;;;-11.93;100.00;91314.13;5011965;28;20474;-69
2022/03/11 02:50:50;;;;;;;7.03;3.40;;;;;;;-12.09;100.00;91316.75;5011736;28;20112;-69
2022/03/11 02:53:15;;;;;;;6.30;3.85;;;;;;;-12.10;100.00;91310.81;5011595;28;20033;-70
2022/03/11 02:55:41;;;;;;;10.43;3.25;;;;;;;-12.11;100.00;91319.47;5011671;28;20099;-69
2022/03/11 02:58:07;;;;;;;6.22;3.05;;;;;;;-12.09;100.00;91327.00;5011643;28;20099;-70
2022/03/11 03:00:32;;;;;;;4.53;3.03;;;;;;;-12.13;100.00;91315.47;5011577;28;20032;-69
2022/03/11 03:02:58;;;;;;;4.93;3.60;;;;;;;-12.14;100.00;91304.44;5011456;28;20041;-70
2022/03/11 03:08:59;;;;;;;5.38;2.80;;;;;;;-12.07;100.00;91314.81;4992545;28;20072;-61
2022/03/11 03:11:24;;;;;;;6.68;3.65;;;;;;;-12.08;100.00;91317.53;5011453;28;20410;-61
2022/03/11 03:13:50;;;;;;;5.68;3.50;;;;;;;-12.08;100.00;91313.22;5011343;28;20036;-61
2022/03/11 03:16:15;;;;;;;8.77;4.47;;;;;;;-12.08;100.00;91312.41;5011200;28;20105;-61
2022/03/11 03:18:41;;;;;;;7.35;3.20;;;;;;;-12.08;100.00;91312.41;5011248;28;20037;-61
2022/03/11 03:21:06;;;;;;;6.00;3.55;;;;;;;-12.08;100.00;91308.09;4993632;28;20045;-61
2022/03/11 03:23:32;;;;;;;7.40;3.50;;;;;;;-12.13;100.00;91315.47;5011474;28;20092;-60
2022/03/11 03:25:57;;;;;;;8.50;4.03;;;;;;;-12.13;100.00;91312.91;5011094;28;20113;-60
2022/03/11 03:28:23;;;;;;;10.88;4.85;;;;;;;-12.11;100.00;91313.56;5011100;28;20030;-61
2022/03/11 03:30:48;;;;;;;7.72;4.05;;;;;;;-12.19;100.00;91311.00;5011104;28;20028;-61
2022/03/11 03:33:14;;;;;;;3.92;2.60;;;;;;;-12.18;100.00;91310.84;5011058;28;20022;-60
2022/03/11 03:35:39;;;;;;;5.78;3.10;;;;;;;-12.10;100.00;91321.06;5010999;28;20034;-61
2022/03/11 03:38:05;;;;;;;2.17;1.98;;;;;;;-12.06;100.00;91323.31;5011120;28;20068;-61
2022/03/11 03:40:30;;;;;;;7.82;3.35;;;;;;;-12.11;100.00;91308.44;5010990;28;20061;-61
2022/03/11 03:42:56;;;;;;;13.38;3.67;;;;;;;-12.13;100.00;91325.75;5011052;28;20041;-61
2022/03/11 03:45:21;;;;;;;8.05;3.72;;;;;;;-12.27;100.00;91316.16;5010873;28;20118;-60
2022/03/11 03:47:47;;;;;;;7.80;4.00;;;;;;;-12.32;100.00;91314.06;5010925;28;20048;-60
2022/03/11 03:50:12;;;;;;;6.88;4.25;;;;;;;-12.44;100.00;91312.84;5010922;28;20108;-61
2022/03/11 03:52:38;;;;;;;10.68;4.82;;;;;;;-12.57;100.00;91312.53;5010923;28;20030;-59
2022/03/11 03:55:05;;;;;;;8.25;3.05;;;;;;;-12.59;100.00;91317.84;5013005;28;20049;-61
2022/03/11 03:57:31;;;;;;;12.30;5.18;;;;;;;-12.61;100.00;91324.88;5014833;28;20519;-60
2022/03/11 03:59:57;;;;;;;8.65;4.13;;;;;;;-12.65;100.00;91327.91;5015026;28;20045;-60
2022/03/11 04:02:22;;;;;;;11.57;5.30;;;;;;;-12.84;100.00;91313.69;5014753;28;20034;-60
2022/03/11 04:04:48;;;;;;;10.80;4.88;;;;;;;-12.77;100.00;91333.41;4996927;28;20491;-61
2022/03/11 04:07:13;;;;;;;12.75;4.50;;;;;;;-12.69;100.00;91337.69;5014805;28;20045;-60
2022/03/11 04:09:39;;;;;;;10.15;5.55;;;;;;;-12.85;100.00;91324.91;5014392;28;20526;-61
2022/03/11 04:12:04;;;;;;;17.48;5.68;;;;;;;-12.71;100.00;91337.06;5014591;28;20033;-61
2022/03/11 04:14:30;;;;;;;8.82;3.78;;;;;;;-12.67;100.00;91338.31;5014433;28;20037;-60
2022/03/11 04:16:55;;;;;;;6.90;4.28;;;;;;;-12.71;100.00;91340.41;5014530;28;20101;-61
2022/03/11 04:19:21;;;;;;;19.90;4.03;;;;;;;-12.82;100.00;91345.84;5014660;28;20033;-60
2022/03/11 04:21:47;;;;;;;14.73;6.20;;;;;;;-12.91;100.00;91343.47;5014583;28;20037;-60
2022/03/11 04:24:15;;;;;;;12.30;4.25;;;;;;;-13.01;100.00;91344.44;5014031;28;20041;-61
2022/03/11 04:26:43;;;;;;;6.47;2.97;;;;;;;-12.92;100.00;91347.81;5014225;28;20040;-61
2022/03/11 04:29:09;;;;;;;7.20;3.78;;;;;;;-12.83;100.00;91346.03;5014164;28;20029;-61
2022/03/11 04:31:34;;;;;;;6.18;3.60;;;;;;;-12.82;100.00;91345.06;5014186;28;20029;-61
2022/03/11 04:34:01;;;;;;;13.27;6.45;;;;;;;-12.82;100.00;91345.84;5012898;28;20033;-61
2022/03/11 04:36:28;;;;;;;21.27;9.07;;;;;;;-12.76;100.00;91344.44;5012974;28;20040;-61
2022/03/11 04:38:53;;;;;;;23.70;7.47;;;;;;;-12.75;100.00;91343.47;5013406;28;20041;-61
2022/03/11 04:41:19;;;;;;;74.18;21.35;;;;;;;-12.77;100.00;91347.97;5013228;28;20018;-60
2022/03/11 04:43:45;;;;;;;30.98;12.32;;;;;;;-12.75;100.00;91341.72;5012660;28;20037;-61
2022/03/11 04:46:10;;;;;;;16.20;8.00;;;;;;;-12.59;100.00;91345.22;5013105;28;20053;-61
2022/03/11 04:48:36;;;;;;;13.90;6.80;;;;;;;-12.51;100.00;91343.44;5013130;28;20021;-60
2022/03/11 04:51:04;;;;;;;12.32;6.47;;;;;;;-12.41;100.00;91346.63;5013047;28;20025;-62
2022/03/11 04:53:30;;;;;;;10.95;5.68;;;;;;;-12.26;100.00;91345.97;5010661;28;20032;-61
2022/03/11 04:55:55;;;;;;;18.10;6.20;;;;;;;-12.30;100.00;91350.63;5012824;28;20022;-61
2022/03/11 04:58:20;;;;;;;9.40;3.83;;;;;;;-12.28;100.00;91353.03;5012381;28;20095;-60
2022/03/11 05:00:46;;;;;;;11.80;5.18;;;;;;;-12.53;100.00;91342.78;5012897;28;20080;-61
2022/03/11 05:03:12;;;;;;;28.80;10.32;;;;;;;-12.69;100.00;91350.50;5012870;28;20022;-61
2022/03/11 05:05:37;;;;;;;14.52;5.38;;;;;;;-12.63;100.00;91352.41;5012038;28;20097;-61
2022/03/11 05:08:03;;;;;;;11.18;5.97;;;;;;;-12.46;100.00;91350.66;4995039;28;20030;-62
2022/03/11 05:10:28;;;;;;;10.93;4.28;;;;;;;-12.39;100.00;91356.72;5012447;28;20037;-60
2022/03/11 05:12:54;;;;;;;10.43;4.70;;;;;;;-12.37;100.00;91357.34;5012550;28;20018;-60
2022/03/11 05:15:21;;;;;;;15.57;5.57;;;;;;;-12.21;100.00;91365.00;5012442;28;20105;-60
2022/03/11 05:17:47;;;;;;;13.30;6.95;;;;;;;-12.03;100.00;91366.56;4994979;28;20026;-61
2022/03/11 05:20:12;;;;;;;11.88;5.18;;;;;;;-11.87;100.00;91361.38;5012334;28;20083;-61
2022/03/11 05:22:38;;;;;;;20.15;7.30;;;;;;;-11.19;98.76;91371.00;5022903;28;20108;-62
2022/03/11 05:25:03;;;;;;;19.98;6.53;;;;;;;-9.06;91.21;91367.00;5032924;28;20026;-61
2022/03/11 05:27:29;;;;;;;21.67;9.45;;;;;;;-7.48;80.38;91365.88;5027311;28;20454;-62
2022/03/11 05:29:54;;;;;;;16.95;7.05;;;;;;;-6.73;72.37;91362.41;5012188;28;20034;-61
2022/03/11 05:32:20;;;;;;;14.48;7.85;;;;;;;-6.97;67.91;91364.50;5012183;28;20036;-61
2022/03/11 05:34:46;;;;;;;18.38;9.07;;;;;;;-7.39;67.91;91362.97;5012303;28;20026;-61
2022/03/11 05:37:12;;;;;;;18.30;10.50;;;;;;;-7.86;68.47;91367.06;5012521;28;20107;-61
2022/03/11 05:39:38;;;;;;;17.98;8.57;;;;;;;-8.32;69.66;91371.88;5012212;28;20057;-62
2022/03/11 05:42:04;;;;;;;31.35;14.05;;;;;;;-8.72;71.39;91367.34;5009596;28;20415;-61
2022/03/11 05:44:29;;;;;;;26.80;12.15;;;;;;;-8.97;72.46;91372.06;5011935;28;20026;-62
2022/03/11 05:46:55;;;;;;;56.65;17.38;;;;;;;-9.09;73.25;91371.72;5012761;28;20483;-61
2022/03/11 05:49:21;;;;;;;24.48;12.07;;;;;;;-9.22;75.19;91371.56;5012745;28;20448;-61
2022/03/11 05:51:47;;;;;;;36.92;15.93;;;;;;;-9.32;75.27;91374.41;5012653;28;20081;-61
2022/03/11 05:54:12;;;;;;;18.48;8.70;;;;;;;-9.79;76.09;91374.78;5012570;28;20037;-61
2022/03/11 05:56:38;;;;;;;20.20;7.93;;;;;;;-9.86;77.76;91374.72;5011508;28;20518;-62
2022/03/11 05:59:04;;;;;;;24.00;10.52;;;;;;;-9.42;76.88;91377.28;5012049;28;20114;-61
2022/03/11 06:01:31;;;;;;;16.48;7.75;;;;;;;-8.65;75.09;91378.53;5012428;28;20030;-61
2022/03/11 06:03:56;;;;;;;11.27;5.82;;;;;;;-8.19;71.62;91384.88;5012190;28;20079;-61
2022/03/11 06:06:22;;;;;;;7.28;3.78;;;;;;;-6.98;66.45;91380.22;5012330;28;20065;-61
2022/03/11 06:08:47;;;;;;;12.20;5.93;;;;;;;-7.56;66.38;91385.72;5011377;28;20092;-61
2022/03/11 06:11:13;;;;;;;13.77;6.20;;;;;;;-6.87;65.89;91384.84;5011740;28;20025;-61
2022/03/11 06:13:38;;;;;;;7.43;4.72;;;;;;;-7.25;67.51;91390.47;5012166;28;20032;-66
2022/03/11 06:16:04;;;;;;;15.05;7.72;;;;;;;-7.53;69.70;91384.53;4989867;28;20489;-62
2022/03/11 06:18:30;;;;;;;15.23;6.93;;;;;;;-7.64;72.22;91390.22;4991225;28;20033;-62
2022/03/11 06:20:58;;;;;;;16.48;7.45;;;;;;;-8.35;75.13;91400.66;4992292;28;20030;-62
2022/03/11 06:23:24;;;;;;;21.02;9.43;;;;;;;-8.07;75.03;91398.06;4992303;28;20035;-62
2022/03/11 06:25:50;;;;;;;10.68;5.38;;;;;;;-8.17;74.47;91402.75;4991779;28;20037;-64
2022/03/11 06:28:16;;;;;;;15.05;7.93;;;;;;;-8.07;75.89;91407.59;5001446;28;20052;-63
2022/03/11 06:30:44;;;;;;;44.90;23.45;;;;;;;-7.96;78.68;91389.00;5011020;28;20506;-64
2022/03/11 06:33:09;;;;;;;36.40;18.08;;;;;;;-7.94;81.18;91393.00;5010805;28;20037;-63
2022/03/11 06:35:35;;;;;;;41.13;17.38;;;;;;;-7.89;81.03;91395.84;5011143;28;20407;-63
2022/03/11 06:38:00;;;;;;;27.85;10.25;;;;;;;-7.50;79.68;91393.69;4993920;28;20033;-63
2022/03/11 06:40:27;;;;;;;52.88;23.08;;;;;;;-7.88;77.66;91397.44;5010350;28;20500;-62
2022/03/11 06:42:53;;;;;;;9.15;5.95;;;;;;;-6.64;76.98;91389.69;5011297;28;20080;-63
2022/03/11 06:45:19;;;;;;;26.85;9.63;;;;;;;-5.76;70.22;91401.53;5011407;28;20038;-62
2022/03/11 06:47:48;;;;;;;22.50;8.73;;;;;;;-4.50;65.60;91392.66;5011448;28;20084;-62
2022/03/11 06:50:15;;;;;;;15.88;7.90;;;;;;;-3.05;60.96;91394.97;5011376;28;20120;-63
2022/03/11 06:52:41;;;;;;;22.73;9.13;;;;;;;0.63;51.40;91384.03;5010815;28;20022;-63
2022/03/11 06:55:07;;;;;;;26.73;12.68;;;;;;;0.52;48.27;91391.72;5010056;28;20065;-63
2022/03/11 06:57:34;;;;;;;44.53;18.98;;;;;;;-0.29;48.99;91390.25;5010582;28;20022;-63
2022/03/11 07:00:00;;;;;;;42.70;20.75;;;;;;;1.38;47.68;91384.38;5010486;28;20407;-63
2022/03/11 07:02:26;;;;;;;46.53;21.98;;;;;;;3.96;43.77;91391.41;5010567;28;20049;-63
2022/03/11 07:04:51;;;;;;;49.63;25.80;;;;;;;5.15;40.13;91382.41;4996067;28;20091;-63
2022/03/11 07:07:17;;;;;;;34.38;19.00;;;;;;;6.58;39.48;91385.47;5009874;28;20025;-63
2022/03/11 07:09:42;;;;;;;32.83;18.90;;;;;;;8.24;36.10;91394.97;5001101;28;20431;-65
2022/03/11 07:12:08;;;;;;;21.00;12.85;;;;;;;9.16;34.79;91391.97;5010907;28;20042;-64
2022/03/11 07:14:38;;;;;;;19.70;10.40;;;;;;;10.20;33.91;91385.44;5010622;28;20040;-65
2022/03/11 07:17:06;;;;;;;18.33;11.60;;;;;;;11.42;33.06;91398.13;5011003;28;20419;-63
2022/03/11 07:19:33;;;;;;;20.58;10.98;;;;;;;10.77;32.48;91396.59;5010892;28;20042;-65
2022/03/11 07:22:01;;;;;;;17.30;10.20;;;;;;;9.05;34.57;91414.41;4993267;28;20042;-66
2022/03/11 07:24:26;;;;;;;20.60;10.50;;;;;;;8.13;36.17;91411.25;5010505;28;20518;-64
2022/03/11 07:26:52;;;;;;;28.73;10.63;;;;;;;8.39;35.25;91408.09;5010964;28;20038;-65
2022/03/11 07:29:18;;;;;;;28.25;13.30;;;;;;;8.16;36.21;91416.00;5010359;28;20150;-67
2022/03/11 07:31:43;;;;;;;60.47;26.90;;;;;;;6.35;38.19;91415.22;4993018;28;20049;-65
2022/03/11 07:34:09;;;;;;;59.88;19.98;;;;;;;4.03;41.36;91418.28;5010568;28;20037;-64
2022/03/11 07:36:34;;;;;;;44.10;20.63;;;;;;;4.36;42.51;91415.25;5010755;28;20049;-63
2022/03/11 07:39:04;;;;;;;47.63;21.45;;;;;;;4.03;45.05;91413.00;5009979;28;20042;-65
2022/03/11 07:41:30;;;;;;;68.10;33.50;;;;;;;4.32;44.38;91406.28;5010306;28;20104;-65
2022/03/11 07:43:56;;;;;;;30.73;19.58;;;;;;;4.53;44.45;91419.50;5009349;28;20030;-63
2022/03/11 07:46:23;;;;;;;35.78;18.45;;;;;;;5.15;43.11;91415.91;5009562;28;20042;-63
2022/03/11 07:48:51;;;;;;;34.80;20.38;;;;;;;4.86;43.00;91418.25;5009472;28;20046;-63
2022/03/11 07:51:18;;;;;;;46.72;20.52;;;;;;;1.55;49.32;91428.09;5009498;28;20045;-63
2022/03/11 07:53:44;;;;;;;30.23;15.70;;;;;;;0.15;53.17;91422.72;5009459;28;20030;-62
2022/03/11 07:56:11;;;;;;;67.20;17.88;;;;;;;2.21;49.55;91416.63;5009401;28;20140;-63
2022/03/11 07:58:39;;;;;;;60.17;20.00;;;;;;;1.68;50.42;91418.06;5009364;28;20052;-62
2022/03/11 08:01:07;;;;;;;30.83;17.52;;;;;;;0.67;51.83;91425.22;5009656;28;20061;-62
2022/03/11 08:03:33;;;;;;;26.02;14.93;;;;;;;2.13;51.04;91432.00;5007190;28;20113;-62
2022/03/11 08:05:59;;;;;;;38.85;17.60;;;;;;;5.60;43.67;91420.38;5009393;28;20121;-61
2022/03/11 08:08:24;;;;;;;32.97;20.10;;;;;;;3.79;44.76;91423.97;5008978;28;20030;-61
2022/03/11 08:10:49;;;;;;;52.80;16.77;;;;;;;4.87;45.32;91415.34;4991220;28;20112;-62
2022/03/11 08:13:15;;;;;;;19.63;9.95;;;;;;;7.51;40.79;91417.13;5009388;28;20151;-63
2022/03/11 08:15:41;;;;;;;27.50;16.90;;;;;;;8.85;37.46;91417.34;5008917;28;20112;-63
2022/03/11 08:18:06;;;;;;;32.00;14.43;;;;;;;8.75;37.52;91420.91;5009421;28;20045;-63
2022/03/11 08:20:32;;;;;;;66.22;35.28;;;;;;;7.60;40.03;91417.34;5009841;28;20033;-63
2022/03/11 08:22:57;;;;;;;181.05;93.03;;;;;;;8.11;39.57;91420.28;5009664;28;20029;-63
2022/03/11 08:25:26;;;;;;;57.38;29.13;;;;;;;8.03;38.09;91415.59;5009957;28;20045;-63
2022/03/11 08:27:56;;;;;;;85.38;47.60;;;;;;;9.63;36.95;91416.72;5010181;28;20062;-63
2022/03/11 08:30:22;;;;;;;56.58;30.48;;;;;;;8.66;37.46;91415.44;5010045;28;20038;-62
2022/03/11 08:32:48;;;;;;;28.92;18.40;;;;;;;7.85;38.15;91416.28;5009857;28;20042;-62
2022/03/11 08:35:14;;;;;;;35.33;14.85;;;;;;;4.87;43.63;91422.47;4992111;28;20053;-62
2022/03/11 08:37:41;;;;;;;40.53;22.00;;;;;;;5.09;42.64;91426.47;5010010;28;20036;-62
2022/03/11 08:40:09;;;;;;;22.58;13.15;;;;;;;4.87;43.25;91425.91;5009967;28;20637;-63
2022/03/11 08:42:35;;;;;;;44.08;13.80;;;;;;;6.28;42.04;91416.28;4995037;28;20493;-64
2022/03/11 08:45:01;;;;;;;24.15;11.90;;;;;;;7.97;37.44;91413.28;5013419;28;20042;-64
2022/03/11 08:47:27;;;;;;;15.52;10.95;;;;;;;9.88;34.31;91418.94;5013417;28;20046;-64
2022/03/11 08:49:53;;;;;;;20.23;12.15;;;;;;;7.86;36.60;91417.88;5013429;28;20095;-63
2022/03/11 08:52:19;;;;;;;28.08;15.68;;;;;;;9.77;36.73;91412.22;5012247;28;20053;-64
2022/03/11 08:54:46;;;;;;;35.20;20.90;;;;;;;9.80;36.26;91416.19;5012685;28;20042;-64
2022/03/11 08:57:12;;;;;;;21.25;13.65;;;;;;;8.84;36.83;91415.75;5013125;28;20071;-64
2022/03/11 08:59:37;;;;;;;22.85;14.95;;;;;;;9.01;36.34;91413.41;5013291;28;20132;-64
2022/03/11 09:02:06;;;;;;;28.65;14.23;;;;;;;10.19;34.23;91424.53;5013327;28;20121;-63
2022/03/11 09:04:32;;;;;;;53.72;23.90;;;;;;;9.65;35.66;91419.88;5013086;28;20045;-64
2022/03/11 09:06:58;;;;;;;26.67;16.42;;;;;;;10.41;36.00;91420.44;5013254;28;20038;-64
2022/03/11 09:09:23;;;;;;;21.30;11.90;;;;;;;9.70;35.48;91426.97;5012645;28;20050;-63
2022/03/11 09:11:49;;;;;;;15.13;10.75;;;;;;;9.91;35.94;91422.88;5013118;28;20569;-63
2022/03/11 09:14:14;;;;;;;11.70;9.30;;;;;;;9.90;35.55;91413.34;5013148;28;20022;-64
2022/03/11 09:16:39;;;;;;;27.98;14.65;;;;;;;10.53;34.01;91396.78;5012949;28;20424;-64
2022/03/11 09:19:05;;;;;;;27.40;11.80;;;;;;;8.48;36.55;91416.19;5013031;28;20030;-65
2022/03/11 09:21:31;;;;;;;47.92;15.27;;;;;;;6.25;38.53;91419.47;5012026;28;20057;-64
2022/03/11 09:23:56;;;;;;;23.00;11.43;;;;;;;6.42;39.73;91407.75;5011730;28;20024;-64
2022/03/11 09:26:22;;;;;;;22.33;14.45;;;;;;;7.83;37.64;91418.44;5012898;28;20079;-64
2022/03/11 09:28:47;;;;;;;28.08;17.45;;;;;;;6.55;38.37;91415.09;5012757;28;20034;-64
2022/03/11 09:31:14;;;;;;;15.35;8.85;;;;;;;4.49;41.08;91416.59;4995169;28;20033;-63
2022/03/11 09:33:40;;;;;;;18.92;8.07;;;;;;;1.61;47.50;91419.28;5012649;28;20034;-63
2022/03/11 09:36:07;;;;;;;18.08;8.13;;;;;;;2.55;47.71;91413.81;5012644;28;20112;-63
2022/03/11 09:38:33;;;;;;;29.50;16.00;;;;;;;5.93;40.73;91411.91;5011913;28;20017;-63
2022/03/11 09:41:02;;;;;;;86.53;44.72;;;;;;;4.70;43.90;91410.31;5012578;28;20033;-63
2022/03/11 09:43:27;;;;;;;28.88;9.20;;;;;;;9.51;35.33;91398.59;5012585;28;20034;-63
2022/03/11 09:45:53;;;;;;;12.98;8.18;;;;;;;11.57;31.98;91398.53;4994946;28;20030;-63
2022/03/11 09:48:19;;;;;;;14.18;6.95;;;;;;;13.86;30.47;91402.94;5012564;28;20032;-63
2022/03/11 09:50:45;;;;;;;11.70;7.03;;;;;;;15.40;27.83;91401.91;5012575;28;20044;-62
2022/03/11 09:53:12;;;;;;;21.10;10.77;;;;;;;15.37;27.53;91397.19;5011641;28;20502;-63
2022/03/11 09:55:39;;;;;;;9.90;7.65;;;;;;;13.86;28.74;91408.28;5012225;28;20618;-64
2022/03/11 09:58:04;;;;;;;15.90;9.88;;;;;;;12.15;28.77;91396.88;5012288;28;20368;-63
2022/03/11 10:00:29;;;;;;;14.93;11.25;;;;;;;8.97;31.16;91405.19;5012386;28;20030;-62
2022/03/11 10:02:55;;;;;;;12.77;7.68;;;;;;;3.55;38.22;91393.81;5012357;28;20080;-62
2022/03/11 10:05:22;;;;;;;20.08;10.15;;;;;;;4.87;38.50;91410.06;5012165;28;20094;-62
2022/03/11 10:08:07;;;;;;;18.33;9.63;;;;;;;5.61;39.30;91406.91;5011942;28;20500;-62
2022/03/11 10:10:32;;;;;;;24.88;15.05;;;;;;;4.70;37.90;91401.63;5012008;28;20053;-61
2022/03/11 10:12:58;;;;;;;38.30;19.27;;;;;;;4.24;39.41;91390.97;5012222;28;20026;-62
2022/03/11 10:15:28;;;;;;;31.42;17.73;;;;;;;3.04;41.59;91401.38;5012036;28;20026;-63
2022/03/11 10:17:54;;;;;;;44.03;24.23;;;;;;;0.62;45.74;91406.00;5012105;28;20026;-62
2022/03/11 10:20:21;;;;;;;10.07;6.63;;;;;;;-0.78;49.65;91404.69;5012021;28;20034;-62
2022/03/11 10:22:47;;;;;;;22.50;8.05;;;;;;;-1.37;52.62;91396.81;5011561;28;20149;-63
2022/03/11 10:25:16;;;;;;;58.15;10.88;;;;;;;-2.03;54.93;91392.59;5011363;28;20057;-63
2022/03/11 10:28:01;;;;;;;21.23;12.38;;;;;;;-1.69;56.40;91396.31;5011853;28;20407;-62
2022/03/11 10:30:28;;;;;;;31.48;17.85;;;;;;;-1.44;54.53;91390.91;5011754;28;20088;-63
2022/03/11 10:32:55;;;;;;;41.70;17.58;;;;;;;-0.84;50.97;91385.47;5011689;28;20033;-63
2022/03/11 10:35:34;;;;;;;81.47;36.75;;;;;;;0.12;51.90;91398.88;5011325;28;20467;-62
2022/03/11 10:38:04;;;;;;;26.30;12.52;;;;;;;-0.46;50.82;91392.81;5011122;28;20021;-63
2022/03/11 10:40:31;;;;;;;19.95;11.10;;;;;;;0.28;50.41;91400.72;5011672;28;20476;-63
2022/03/11 10:43:14;;;;;;;39.15;18.50;;;;;;;0.01;48.35;91391.88;5011676;28;20022;-62
2022/03/11 10:45:50;;;;;;;24.75;13.77;;;;;;;0.86;48.13;91397.78;5011544;28;20037;-63
2022/03/11 10:48:17;;;;;;;15.85;8.18;;;;;;;0.11;49.31;91392.84;5011554;28;20510;-62
2022/03/11 10:50:43;;;;;;;8.88;5.35;;;;;;;0.16;49.81;91398.19;5011505;28;20025;-63
2022/03/11 10:53:10;;;;;;;32.25;12.57;;;;;;;-0.08;49.63;91392.22;5010965;28;20559;-65
2022/03/11 10:55:39;;;;;;;18.67;10.32;;;;;;;-0.76;50.75;91392.19;5011286;28;20388;-63
2022/03/11 10:58:05;;;;;;;11.25;6.70;;;;;;;-1.22;50.74;91380.72;5011301;28;20080;-62
2022/03/11 11:00:35;;;;;;;11.93;8.65;;;;;;;-1.01;53.04;91381.97;5011291;28;20462;-63
2022/03/11 11:03:03;;;;;;;11.40;5.80;;;;;;;0.64;47.34;91389.06;5011046;28;20026;-63
2022/03/11 11:05:30;;;;;;;18.48;6.18;;;;;;;0.94;46.36;91377.44;5010413;28;20038;-63
2022/03/11 11:08:01;;;;;;;8.93;5.07;;;;;;;0.78;47.19;91379.81;5010691;28;20041;-62
2022/03/11 11:10:29;;;;;;;6.97;5.50;;;;;;;2.26;46.39;91374.66;5011059;28;20053;-63
2022/03/11 11:12:55;;;;;;;7.38;5.05;;;;;;;1.74;43.49;91372.53;5011254;28;20100;-63
2022/03/11 11:15:21;;;;;;;15.80;8.82;;;;;;;1.97;46.22;91368.84;5011070;28;20030;-62
2022/03/11 11:17:51;;;;;;;13.10;6.25;;;;;;;1.52;47.52;91366.47;5011120;28;20029;-62